Time;durP1;ratioP1;P1;durP2;ratioP2;P2;SDS_P1;SDS_P2;PMS_P1;PMS_P2;Temp;Humidity;BMP_temperature;BMP_pressure;BME280_temperature;BME280_humidity;BME280_pressure;Samples;Min_cycle;Max_cycle;Signal;HPM_P1;HPM_P2
2023/01/12 00:02:21;;;;;;;50.08;10.45;;;10.80;99.90;;;11.01;100.00;100693.16;5076421;28;20040;-66
2023/01/12 00:04:49;;;;;;;57.58;10.00;;;10.80;99.90;;;11.09;100.00;100696.59;5094010;28;20047;-68
2023/01/12 00:07:19;;;;;;;49.45;10.68;;;10.90;99.90;;;11.12;100.00;100681.56;5094093;28;20071;-66
2023/01/12 00:09:47;;;;;;;66.13;12.60;;;10.90;99.90;;;11.10;100.00;100662.19;5094144;28;20040;-67
2023/01/12 00:12:16;;;;;;;63.47;13.30;;;10.90;99.90;;;11.21;100.00;100680.59;5093861;28;20044;-66
2023/01/12 00:14:45;;;;;;;65.55;13.27;;;11.00;99.90;;;11.22;100.00;100669.13;5093741;28;20052;-66
2023/01/12 00:17:16;;;;;;;72.15;12.80;;;11.00;99.90;;;11.26;100.00;100677.03;5093742;28;20391;-66
2023/01/12 00:19:44;;;;;;;76.97;13.80;;;11.00;99.90;;;11.36;100.00;100654.81;5093775;28;20397;-66
2023/01/12 00:22:16;;;;;;;77.70;14.73;;;11.10;99.90;;;11.37;100.00;100659.25;5093871;28;20044;-68
2023/01/12 00:24:48;;;;;;;85.97;14.48;;;11.10;99.90;;;11.38;100.00;100642.44;5075655;28;20047;-66
2023/01/12 00:27:18;;;;;;;87.03;16.13;;;11.10;99.90;;;11.40;100.00;100656.53;5093542;28;20068;-66
2023/01/12 00:29:49;;;;;;;81.18;14.65;;;11.20;99.90;;;11.32;100.00;100639.91;5075309;28;20136;-67
2023/01/12 00:32:20;;;;;;;83.07;15.35;;;11.10;99.90;;;11.34;100.00;100653.09;5075649;28;20040;-66
2023/01/12 00:34:48;;;;;;;88.60;16.55;;;11.10;99.90;;;11.33;100.00;100641.63;5075569;28;20516;-66
2023/01/12 00:37:18;;;;;;;88.03;16.13;;;11.10;99.90;;;11.29;100.00;100628.44;5093084;28;20050;-66
2023/01/12 00:39:46;;;;;;;92.00;15.50;;;11.10;99.90;;;11.25;100.00;100624.94;5092306;28;20557;-66
2023/01/12 00:45:22;;;;;;;81.47;14.52;;;11.10;99.90;;;11.27;100.00;100612.56;5093346;28;20101;-68
2023/01/12 00:47:52;;;;;;;86.88;15.55;;;11.00;99.90;;;11.25;100.00;100611.72;5075287;28;20044;-68
2023/01/12 00:50:20;;;;;;;86.00;15.55;;;11.00;99.90;;;11.28;100.00;100611.69;5093121;28;20044;-66
2023/01/12 00:52:49;;;;;;;84.07;16.33;;;11.00;99.90;;;11.31;100.00;100594.88;5093145;28;20044;-66
2023/01/12 00:55:17;;;;;;;78.22;15.60;;;11.10;99.90;;;10.60;100.00;100480.16;5093093;28;20401;-66
2023/01/12 00:57:45;;;;;;;93.05;14.95;;;11.10;99.90;;;11.26;100.00;100587.00;5093133;28;20097;-67
2023/01/12 01:00:17;;;;;;;87.15;15.25;;;11.10;99.90;;;11.27;100.00;100577.28;5093127;28;20071;-66
2023/01/12 01:02:45;;;;;;;93.97;16.42;;;11.10;99.90;;;11.31;100.00;100602.81;5093384;28;20040;-66
2023/01/12 01:05:14;;;;;;;89.40;15.13;;;11.10;99.90;;;11.28;100.00;100571.97;5093199;28;20181;-67
2023/01/12 01:07:43;;;;;;;90.72;16.13;;;11.10;99.90;;;11.28;100.00;100587.88;5093472;28;20127;-66
2023/01/12 01:10:12;;;;;;;85.95;14.52;;;11.10;99.90;;;11.30;100.00;100580.78;5093185;28;20131;-66
2023/01/12 01:12:40;;;;;;;81.78;14.57;;;11.10;99.90;;;11.30;100.00;100572.84;5092936;28;20562;-66
2023/01/12 01:15:10;;;;;;;81.40;14.98;;;11.10;99.90;;;11.26;100.00;100600.25;5092901;28;20052;-66
2023/01/12 01:17:39;;;;;;;74.03;14.80;;;11.00;99.90;;;11.11;100.00;100546.59;5092893;28;20047;-68
2023/01/12 01:20:10;;;;;;;73.63;14.70;;;11.00;99.90;;;11.30;100.00;100582.56;5075101;28;20090;-66
2023/01/12 01:22:38;;;;;;;64.93;12.35;;;11.10;99.90;;;11.28;100.00;100576.41;5092717;28;20474;-66
2023/01/12 01:25:08;;;;;;;68.68;12.77;;;11.10;99.90;;;11.18;100.00;100602.09;5093444;28;20447;-66
2023/01/12 01:27:36;;;;;;;61.05;12.65;;;11.00;99.90;;;11.16;100.00;100589.75;5075104;28;20059;-66
2023/01/12 01:30:06;;;;;;;65.53;12.80;;;10.90;99.90;;;11.19;100.00;100587.09;5092724;28;20051;-66
2023/01/12 01:32:34;;;;;;;51.22;9.55;;;10.90;99.90;;;11.13;100.00;100592.47;5091678;28;20398;-66
2023/01/12 01:35:05;;;;;;;49.40;10.18;;;11.00;99.90;;;11.18;100.00;100574.75;5092647;28;20070;-65
2023/01/12 01:37:33;;;;;;;52.17;10.60;;;10.90;99.90;;;11.04;100.00;100551.06;5092699;28;20044;-66
2023/01/12 01:40:01;;;;;;;48.67;10.75;;;11.00;99.90;;;11.15;100.00;100562.41;5092560;28;20040;-66
2023/01/12 01:42:30;;;;;;;50.42;10.70;;;11.00;99.90;;;11.14;100.00;100571.25;5092837;28;20100;-66
2023/01/12 01:45:01;;;;;;;39.45;9.55;;;10.90;99.90;;;11.17;100.00;100552.69;5092617;28;20131;-66
2023/01/12 01:47:36;;;;;;;39.35;8.68;;;11.00;99.90;;;11.01;100.00;100543.19;5092774;28;20036;-66
2023/01/12 01:50:17;;;;;;;34.60;8.63;;;10.90;99.90;;;11.11;100.00;100552.75;5095950;28;20139;-66
2023/01/12 01:52:50;;;;;;;36.40;8.40;;;10.80;99.90;;;11.04;100.00;100529.03;5078684;28;20120;-67
2023/01/12 01:55:23;;;;;;;42.53;8.93;;;10.80;99.90;;;11.04;100.00;100552.84;5078642;28;20040;-66
2023/01/12 01:57:58;;;;;;;34.10;8.85;;;10.80;99.90;;;11.11;100.00;100541.31;5096815;28;20052;-67
2023/01/12 02:00:27;;;;;;;41.03;8.88;;;10.80;99.90;;;11.08;100.00;100505.16;5096541;28;20100;-67
2023/01/12 02:02:56;;;;;;;43.08;8.98;;;10.90;99.90;;;11.13;100.00;100507.75;5096670;28;20115;-66
2023/01/12 02:05:27;;;;;;;33.40;9.10;;;10.90;99.90;;;11.10;100.00;100498.06;5096355;28;20052;-66
2023/01/12 02:08:03;;;;;;;41.33;9.57;;;10.90;99.90;;;11.23;100.00;100499.66;5078340;28;20450;-66
2023/01/12 02:10:31;;;;;;;42.83;10.27;;;11.00;99.90;;;11.20;100.00;100488.25;5096258;28;20047;-66
2023/01/12 02:18:55;;;;;;;51.25;11.75;;;11.00;99.90;;;11.20;100.00;100464.41;5078132;28;20052;-66
2023/01/12 02:21:58;;;;;;;47.63;9.90;;;11.00;99.90;;;11.22;100.00;100466.16;5096354;28;20138;-66
2023/01/12 02:25:04;;;;;;;43.75;8.95;;;11.00;99.90;;;11.15;100.00;100464.47;5074423;28;20486;-66
2023/01/12 02:28:11;;;;;;;40.03;9.27;;;10.90;99.90;;;11.11;100.00;100452.16;5075520;28;20052;-66
2023/01/12 02:31:36;;;;;;;45.05;10.05;;;10.90;99.90;;;11.06;100.00;100442.53;5075920;28;20060;-66
2023/01/12 02:34:23;;;;;;;38.67;9.40;;;10.80;99.90;;;11.03;100.00;100448.78;5073285;28;20082;-66
2023/01/12 02:37:03;;;;;;;45.15;9.10;;;10.80;99.90;;;11.07;100.00;100447.81;5075696;28;20117;-67
2023/01/12 02:39:39;;;;;;;43.25;9.00;;;10.80;99.90;;;11.06;100.00;100454.00;5075709;28;20048;-67
2023/01/12 02:45:22;;;;;;;35.30;8.38;;;10.80;99.90;;;11.13;100.00;100408.03;5075317;28;20557;-66
2023/01/12 02:47:57;;;;;;;37.55;8.50;;;10.90;99.90;;;11.11;100.00;100401.03;5075178;28;20371;-66
2023/01/12 02:50:35;;;;;;;33.55;8.55;;;10.90;99.90;;;11.15;100.00;100386.88;5075256;28;20072;-67
2023/01/12 02:53:10;;;;;;;35.72;9.13;;;10.90;99.90;;;11.18;100.00;100398.28;5075173;28;20590;-66
2023/01/12 02:55:41;;;;;;;48.75;10.95;;;10.90;99.90;;;11.24;100.00;100402.59;5075370;28;20109;-66
2023/01/12 02:58:12;;;;;;;;;;;11.00;99.90;;;11.08;100.00;100362.25;5075817;28;20048;-66
2023/01/12 03:00:42;;;;;;;41.97;9.48;;;11.10;99.90;;;11.27;100.00;100379.59;5074904;28;19964;-66
2023/01/12 03:03:11;;;;;;;25.67;7.22;;;11.00;99.90;;;11.07;100.00;100354.34;5074939;28;20075;-66
2023/01/12 03:05:42;;;;;;;22.08;7.40;;;10.90;99.90;;;10.99;100.00;100372.97;5074846;28;20410;-66
2023/01/12 03:08:15;;;;;;;25.35;6.97;;;10.80;99.90;;;10.97;100.00;100348.31;5075262;28;20040;-65
2023/01/12 03:11:12;;;;;;;25.88;7.28;;;10.80;99.90;;;11.03;100.00;100323.50;5075444;28;20055;-66
2023/01/12 03:13:45;;;;;;;24.83;7.07;;;10.80;99.90;;;10.98;100.00;100301.53;5075104;28;20054;-65
2023/01/12 03:16:18;;;;;;;24.73;6.97;;;10.80;99.90;;;10.99;100.00;100313.88;5074667;28;20044;-65
2023/01/12 03:18:54;;;;;;;26.55;7.93;;;10.80;99.90;;;11.00;100.00;100278.56;5073704;28;20165;-66
2023/01/12 03:21:29;;;;;;;23.35;6.90;;;10.80;99.90;;;10.95;100.00;100286.59;5074647;28;20048;-66
2023/01/12 03:24:05;;;;;;;24.23;6.95;;;10.80;99.90;;;10.94;100.00;100290.13;5090570;28;20052;-67
2023/01/12 03:26:37;;;;;;;27.40;6.78;;;10.80;99.90;;;10.87;100.00;100256.72;5094825;28;20040;-66
2023/01/12 03:29:12;;;;;;;26.00;6.30;;;10.70;99.90;;;10.84;100.00;100264.69;5095023;28;20048;-65
2023/01/12 03:31:42;;;;;;;24.55;6.70;;;10.70;99.90;;;10.89;100.00;100247.00;5095060;28;20473;-65
2023/01/12 03:34:10;;;;;;;20.08;6.78;;;10.70;99.90;;;10.98;100.00;100269.78;5094841;28;20040;-66
2023/01/12 03:36:51;;;;;;;22.33;6.80;;;10.70;99.90;;;10.76;100.00;100245.44;5094805;28;20110;-65
2023/01/12 03:39:25;;;;;;;27.42;7.63;;;10.70;99.90;;;10.87;100.00;100214.41;5094777;28;20401;-65
2023/01/12 03:42:01;;;;;;;21.48;6.72;;;10.70;99.90;;;10.78;100.00;100196.88;5094631;28;20058;-66
2023/01/12 03:44:38;;;;;;;25.35;7.07;;;10.60;99.90;;;10.80;100.00;100220.69;5076743;28;20498;-65
2023/01/12 03:47:14;;;;;;;21.33;6.80;;;10.60;99.90;;;10.76;100.00;100222.50;5094582;28;20047;-65
2023/01/12 03:49:47;;;;;;;24.13;7.22;;;10.60;99.90;;;10.72;100.00;100198.78;5076570;28;20225;-65
2023/01/12 03:52:18;;;;;;;20.95;7.57;;;10.60;99.90;;;10.69;100.00;100217.31;5076640;28;20576;-66
2023/01/12 03:54:47;;;;;;;23.13;7.80;;;10.50;99.90;;;10.73;100.00;100211.97;5095006;28;20036;-65
2023/01/12 03:57:16;;;;;;;17.13;6.50;;;10.50;99.90;;;10.68;100.00;100218.22;5094538;28;20119;-65
2023/01/12 03:59:44;;;;;;;27.08;7.05;;;10.50;99.90;;;10.62;100.00;100191.88;5094633;28;20040;-66
2023/01/12 04:02:13;;;;;;;20.52;6.30;;;10.50;99.90;;;10.58;100.00;100184.88;5094725;28;20401;-66
2023/01/12 04:04:42;;;;;;;21.88;7.15;;;10.40;99.90;;;10.48;100.00;100188.56;5094373;28;20453;-65
2023/01/12 04:07:10;;;;;;;24.08;6.40;;;10.30;99.90;;;10.42;100.00;100149.00;5094207;28;20486;-65
2023/01/12 04:09:40;;;;;;;15.60;6.32;;;10.30;99.90;;;10.45;100.00;100141.03;5094407;28;20072;-65
2023/01/12 04:12:12;;;;;;;23.38;6.57;;;10.30;99.90;;;10.45;100.00;100147.16;5075612;28;20535;-65
2023/01/12 04:14:42;;;;;;;15.68;5.78;;;10.30;99.90;;;10.40;100.00;100185.16;5094144;28;20055;-66
2023/01/12 04:17:15;;;;;;;17.30;5.68;;;10.20;99.90;;;10.40;100.00;100151.66;5094080;28;20048;-66
2023/01/12 04:19:44;;;;;;;21.17;6.25;;;10.20;99.90;;;10.44;100.00;100100.50;5093944;28;20044;-66
2023/01/12 04:25:03;;;;;;;15.25;5.60;;;10.20;99.90;;;10.44;100.00;100155.13;5093654;28;20040;-66
2023/01/12 04:27:31;;;;;;;10.88;5.72;;;10.20;99.90;;;10.42;100.00;100149.88;5093973;28;20402;-65
2023/01/12 04:30:00;;;;;;;17.65;6.68;;;10.20;99.90;;;10.53;100.00;100136.50;5093796;28;20072;-65
2023/01/12 04:32:28;;;;;;;14.38;6.38;;;10.30;99.90;;;10.59;100.00;100170.75;5093770;28;20121;-66
2023/01/12 04:34:56;;;;;;;14.07;6.15;;;10.40;99.90;;;10.51;100.00;100115.34;5093484;28;20044;-66
2023/01/12 04:37:25;;;;;;;14.75;5.95;;;10.40;99.90;;;10.48;100.00;100099.56;5093685;28;20561;-66
2023/01/12 04:39:54;;;;;;;15.35;6.15;;;10.30;99.90;;;10.51;100.00;100131.22;5093439;28;20076;-68
2023/01/12 04:45:10;;;;;;;17.70;6.35;;;10.30;99.90;;;10.52;100.00;100090.69;5093593;28;20040;-66
2023/01/12 04:47:39;;;;;;;12.27;5.38;;;10.30;99.90;;;10.57;100.00;100111.72;5093146;28;20545;-66
2023/01/12 04:50:09;;;;;;;10.73;4.65;;;10.40;99.90;;;10.61;100.00;100089.63;5093097;28;20044;-67
2023/01/12 04:52:38;;;;;;;12.20;4.75;;;10.40;99.90;;;10.62;100.00;100096.69;5093489;28;20426;-66
2023/01/12 04:55:07;;;;;;;13.40;4.80;;;10.40;99.90;;;10.60;100.00;100125.81;5093062;28;20403;-66
2023/01/12 04:57:37;;;;;;;13.35;5.53;;;10.40;99.90;;;10.59;100.00;100129.31;5093071;28;20371;-65
2023/01/12 05:00:08;;;;;;;15.27;5.07;;;10.40;99.90;;;10.60;100.00;100107.28;5075060;28;20067;-66
2023/01/12 05:02:36;;;;;;;14.50;4.60;;;10.40;99.90;;;10.66;100.00;100124.81;5092997;28;20457;-66
2023/01/12 05:05:07;;;;;;;13.32;4.53;;;10.40;99.90;;;10.69;100.00;100088.63;5092950;28;20413;-66
2023/01/12 05:07:35;;;;;;;10.10;4.18;;;10.50;99.90;;;10.77;100.00;100126.38;5092933;28;20454;-66
2023/01/12 05:10:22;;;;;;;9.00;4.38;;;10.50;99.90;;;10.78;100.00;100106.09;5092973;28;20054;-65
2023/01/12 05:12:52;;;;;;;12.50;4.70;;;10.60;99.90;;;10.97;100.00;100147.22;5074866;28;20044;-65
2023/01/12 05:15:20;;;;;;;13.10;4.20;;;10.70;99.90;;;10.98;100.00;100119.81;5092986;28;20047;-65
2023/01/12 05:17:48;;;;;;;11.25;4.63;;;10.70;99.90;;;11.04;100.00;100111.78;5092735;28;20036;-65
2023/01/12 05:20:17;;;;;;;13.30;4.03;;;10.80;99.90;;;10.94;100.00;100067.88;5093338;28;20130;-66
2023/01/12 05:22:47;;;;;;;12.27;4.88;;;10.80;99.90;;;10.99;100.00;100081.03;5092114;28;20040;-66
2023/01/12 05:25:15;;;;;;;16.10;5.20;;;10.80;99.90;;;11.03;100.00;100075.66;5092827;28;20466;-65
2023/01/12 05:27:44;;;;;;;15.82;5.72;;;10.80;99.90;;;11.05;100.00;100092.38;5092618;28;20055;-66
2023/01/12 05:30:15;;;;;;;19.88;4.65;;;10.80;99.90;;;11.10;100.00;100100.22;5092522;28;20124;-66
2023/01/12 05:32:43;;;;;;;;;;;10.90;99.90;;;11.11;100.00;100110.75;5093060;28;20489;-66
2023/01/12 05:35:12;;;;;;;16.73;4.47;;;10.90;99.90;;;11.11;100.00;100072.84;5092582;28;19920;-66
2023/01/12 05:37:40;;;;;;;23.77;5.15;;;10.90;99.90;;;11.13;100.00;100074.56;5092475;28;20539;-66
2023/01/12 05:40:11;;;;;;;14.77;5.70;;;10.90;99.90;;;11.06;100.00;100069.41;5092500;28;20130;-65
2023/01/12 05:45:27;;;;;;;17.00;5.45;;;11.00;99.90;;;11.24;100.00;100106.13;5092998;28;20109;-66
2023/01/12 05:48:00;;;;;;;19.33;5.57;;;11.00;99.90;;;11.31;100.00;100097.16;5092766;28;20086;-66
2023/01/12 05:50:28;;;;;;;26.85;6.43;;;11.10;99.90;;;11.31;100.00;100089.19;5092322;28;20047;-67
2023/01/12 05:53:09;;;;;;;28.60;6.68;;;11.10;99.90;;;11.32;100.00;100089.19;5092553;28;20040;-65
2023/01/12 05:55:37;;;;;;;33.47;6.90;;;11.10;99.90;;;11.39;100.00;100097.88;5074549;28;20044;-66
2023/01/12 05:58:06;;;;;;;32.55;7.30;;;11.20;99.90;;;11.41;100.00;100065.16;5092385;28;20126;-65
2023/01/12 06:00:36;;;;;;;28.38;7.20;;;11.20;99.90;;;11.43;100.00;100079.25;5091242;28;20056;-66
2023/01/12 06:03:04;;;;;;;44.83;8.20;;;11.20;99.90;;;11.44;100.00;100080.13;5092263;28;20091;-65
2023/01/12 06:05:32;;;;;;;36.78;7.93;;;11.20;99.90;;;11.48;100.00;100087.97;5092244;28;20046;-65
2023/01/12 06:08:01;;;;;;;42.03;8.88;;;11.30;99.90;;;11.52;100.00;100073.75;5092541;28;20074;-66
2023/01/12 06:10:30;;;;;;;43.45;10.00;;;11.30;99.90;;;11.37;100.00;100063.47;5092446;28;20413;-66
2023/01/12 06:15:45;;;;;;;49.47;10.70;;;11.30;99.90;;;11.54;100.00;100082.53;5092381;28;20095;-65
2023/01/12 06:18:14;;;;;;;46.97;9.63;;;11.30;99.90;;;11.57;100.00;100078.97;5092262;28;20036;-65
2023/01/12 06:20:42;;;;;;;47.78;9.60;;;11.40;99.90;;;11.58;100.00;100041.84;5092037;28;20033;-65
2023/01/12 06:23:10;;;;;;;51.03;11.23;;;11.40;99.90;;;11.67;100.00;100107.88;5092216;28;20058;-66
2023/01/12 06:25:39;;;;;;;55.75;10.90;;;11.50;99.90;;;11.67;100.00;100094.66;5092231;28;20050;-66
2023/01/12 06:28:07;;;;;;;57.78;11.60;;;11.50;99.90;;;11.70;100.00;100104.31;5074333;28;20051;-65
2023/01/12 06:30:35;;;;;;;53.58;10.50;;;11.50;99.90;;;11.64;100.00;100099.09;5092444;28;20048;-65
2023/01/12 06:33:05;;;;;;;60.45;11.40;;;11.50;99.90;;;11.72;100.00;100119.28;5092246;28;20078;-65
2023/01/12 06:35:33;;;;;;;61.58;11.40;;;11.50;99.90;;;11.75;100.00;100123.63;5096037;28;20123;-66
2023/01/12 06:38:02;;;;;;;70.75;12.48;;;11.60;99.90;;;11.83;100.00;100126.13;5096577;28;20047;-66
2023/01/12 06:40:30;;;;;;;69.45;11.05;;;11.60;99.90;;;11.82;100.00;100124.38;5096204;28;20071;-65
2023/01/12 06:42:58;;;;;;;75.13;12.35;;;11.60;99.90;;;11.81;100.00;100106.75;5096065;28;20040;-66
2023/01/12 06:45:27;;;;;;;60.63;11.65;;;11.60;99.90;;;11.66;100.00;100095.56;5095732;28;20549;-65
2023/01/12 06:47:56;;;;;;;62.40;12.68;;;11.60;99.90;;;11.79;100.00;100136.78;5095663;28;20044;-66
2023/01/12 06:50:26;;;;;;;55.33;11.57;;;11.60;99.90;;;11.79;100.00;100120.88;5095522;28;20207;-65
2023/01/12 06:52:54;;;;;;;60.30;12.00;;;11.60;99.90;;;11.85;100.00;100134.88;5096071;28;20105;-65
2023/01/12 06:55:23;;;;;;;63.33;11.93;;;11.60;99.90;;;11.83;100.00;100126.13;5095485;28;20047;-66
2023/01/12 06:57:51;;;;;;;54.83;10.35;;;11.60;99.90;;;11.81;100.00;100101.44;5095509;28;20064;-65
2023/01/12 07:00:20;;;;;;;55.50;11.05;;;11.70;99.90;;;11.84;100.00;100133.16;5095363;28;20038;-65
2023/01/12 07:02:50;;;;;;;67.68;12.60;;;11.60;99.90;;;11.87;100.00;100119.84;5095540;28;20397;-65
2023/01/12 07:05:19;;;;;;;55.03;11.50;;;11.70;99.90;;;11.90;100.00;100144.50;5095290;28;20055;-66
2023/01/12 07:07:48;;;;;;;59.53;10.63;;;11.70;99.90;;;11.95;100.00;100139.09;5095191;28;20431;-67
2023/01/12 07:10:17;;;;;;;61.40;11.27;;;11.70;99.90;;;11.91;100.00;100127.69;5095037;28;20066;-65
2023/01/12 07:12:45;;;;;;;61.60;11.95;;;11.70;99.90;;;11.99;100.00;100172.56;5095035;28;20032;-65
2023/01/12 07:15:15;;;;;;;56.92;12.02;;;11.80;99.90;;;12.03;100.00;100176.91;5094996;28;20422;-66
2023/01/12 07:17:43;;;;;;;57.25;12.73;;;11.80;99.90;;;12.07;100.00;100168.00;5094787;28;20483;-65
2023/01/12 07:20:12;;;;;;;62.72;12.35;;;11.80;99.90;;;12.06;100.00;100168.91;5094896;28;20090;-66
2023/01/12 07:22:40;;;;;;;64.05;12.07;;;11.80;99.90;;;12.01;100.00;100141.63;5076526;28;20044;-65
2023/01/12 07:25:10;;;;;;;57.25;11.63;;;11.80;99.90;;;12.07;100.00;100149.44;5094850;28;20040;-66
2023/01/12 07:27:39;;;;;;;56.70;10.98;;;11.80;99.90;;;12.06;100.00;100142.41;5095019;28;20405;-67
2023/01/12 07:30:09;;;;;;;58.88;11.35;;;11.80;99.90;;;12.04;100.00;100154.81;5094627;28;20050;-66
2023/01/12 07:32:38;;;;;;;61.97;11.45;;;11.80;99.90;;;12.08;100.00;100160.00;5094696;28;20131;-68
2023/01/12 07:35:07;;;;;;;54.78;11.02;;;11.90;99.90;;;12.04;100.00;100160.97;5094875;28;20044;-67
2023/01/12 07:37:35;;;;;;;61.67;12.27;;;11.80;99.90;;;12.13;100.00;100158.13;5076291;28;20048;-67
2023/01/12 07:40:05;;;;;;;64.63;11.88;;;11.90;99.90;;;12.08;100.00;100175.91;5094521;28;20071;-65
2023/01/12 07:42:36;;;;;;;71.78;14.13;;;11.90;99.90;;;12.16;100.00;100173.06;5076533;28;20044;-66
2023/01/12 07:45:07;;;;;;;65.43;12.00;;;11.90;99.90;;;12.15;100.00;100177.53;5093875;28;20059;-64
2023/01/12 07:47:35;;;;;;;63.50;12.20;;;11.90;99.90;;;12.15;100.00;100188.13;5094571;28;20048;-65
2023/01/12 07:50:04;;;;;;;65.43;14.15;;;11.90;99.90;;;12.12;100.00;100166.09;5094254;28;20040;-65
2023/01/12 07:52:33;;;;;;;64.68;12.05;;;11.90;99.90;;;12.22;100.00;100189.75;5094283;28;20507;-64
2023/01/12 07:55:02;;;;;;;56.42;12.38;;;12.00;99.90;;;12.21;100.00;100182.69;5094570;28;20119;-65
2023/01/12 07:57:30;;;;;;;51.72;10.98;;;12.00;99.90;;;12.22;100.00;100186.19;5094365;28;20074;-65
2023/01/12 08:00:00;;;;;;;63.97;12.90;;;12.00;99.90;;;12.23;100.00;100198.56;5094360;28;20413;-64
2023/01/12 08:02:28;;;;;;;68.00;13.27;;;12.00;99.90;;;12.31;100.00;100196.63;5094404;28;20435;-65
2023/01/12 08:04:57;;;;;;;57.95;13.40;;;12.10;99.90;;;12.30;100.00;100224.03;5076141;28;20050;-65
2023/01/12 08:07:25;;;;;;;57.08;11.52;;;12.10;99.90;;;12.35;100.00;100206.25;5094605;28;20075;-65
2023/01/12 08:09:53;;;;;;;60.03;11.38;;;12.10;99.90;;;12.32;100.00;100203.66;5094437;28;20133;-65
2023/01/12 08:12:22;;;;;;;59.60;12.40;;;12.10;99.90;;;12.37;100.00;100200.00;5094406;28;20055;-66
2023/01/12 08:14:50;;;;;;;62.75;12.63;;;12.20;99.90;;;12.31;100.00;100197.47;5094125;28;20501;-64
2023/01/12 08:17:23;;;;;;;61.65;12.48;;;12.10;99.90;;;12.24;100.00;100197.66;5075809;28;20079;-64
2023/01/12 08:19:57;;;;;;;60.85;12.48;;;12.00;99.90;;;12.20;100.00;100202.16;5093842;28;20105;-63
2023/01/12 08:22:34;;;;;;;72.07;12.80;;;12.00;99.90;;;12.24;100.00;100217.09;5093875;28;20075;-64
2023/01/12 08:25:09;;;;;;;72.65;14.57;;;12.00;99.90;;;12.21;100.00;100205.69;5094087;28;20501;-65
2023/01/12 08:27:39;;;;;;;63.20;12.63;;;12.00;99.90;;;12.28;100.00;100231.16;5093872;28;20048;-64
2023/01/12 08:30:09;;;;;;;63.33;12.30;;;12.00;99.90;;;12.23;100.00;100215.31;5093558;28;20097;-64
2023/01/12 08:32:39;;;;;;;68.20;12.88;;;12.00;99.90;;;12.28;100.00;100244.41;5093901;28;20140;-66
2023/01/12 08:35:09;;;;;;;63.10;14.10;;;12.10;99.90;;;12.34;100.00;100257.53;5093923;28;20071;-66
2023/01/12 08:37:38;;;;;;;61.83;11.85;;;12.10;99.90;;;12.35;100.00;100244.25;5093455;28;20100;-65
2023/01/12 08:40:09;;;;;;;60.03;12.77;;;12.10;99.90;;;12.18;100.00;100213.69;5093754;28;20072;-66
2023/01/12 08:42:38;;;;;;;69.80;13.30;;;12.20;99.90;;;12.34;100.00;100245.16;5093526;28;20048;-66
2023/01/12 08:45:08;;;;;;;66.63;13.82;;;12.10;99.90;;;12.39;100.00;100240.63;5093678;28;20413;-65
2023/01/12 08:47:39;;;;;;;53.90;12.15;;;12.10;99.90;;;12.40;100.00;100236.19;5094055;28;20130;-66
2023/01/12 08:50:10;;;;;;;71.25;12.80;;;12.20;99.90;;;12.35;100.00;100254.00;5093353;28;20051;-65
2023/01/12 08:52:39;;;;;;;72.55;12.88;;;12.20;99.90;;;11.72;100.00;100140.47;5093377;28;20115;-71
2023/01/12 08:55:10;;;;;;;63.92;13.48;;;12.20;99.90;;;12.44;100.00;100248.47;5075411;28;20036;-66
2023/01/12 08:57:38;;;;;;;67.35;13.20;;;12.20;99.90;;;12.43;100.00;100247.59;5093348;28;20063;-64
2023/01/12 09:00:09;;;;;;;65.20;12.77;;;12.20;99.90;;;12.40;100.00;100252.09;5093578;28;20036;-64
2023/01/12 09:02:37;;;;;;;60.72;12.32;;;12.20;99.90;;;12.40;100.00;100230.88;5093942;28;20143;-64
2023/01/12 09:05:07;;;;;;;69.15;13.43;;;12.20;99.90;;;12.43;100.00;100283.84;5093094;28;20126;-64
2023/01/12 09:07:37;;;;;;;62.17;12.00;;;12.20;99.90;;;12.49;100.00;100262.50;5093328;28;20048;-64
2023/01/12 09:10:07;;;;;;;68.82;13.75;;;12.20;99.90;;;12.47;100.00;100267.84;5093343;28;20214;-64
2023/01/12 09:12:36;;;;;;;66.63;13.90;;;12.20;99.90;;;12.44;100.00;100253.78;5092927;28;20089;-64
2023/01/12 09:15:05;;;;;;;73.07;13.85;;;12.20;99.90;;;12.39;100.00;100269.78;5092949;28;20052;-64
2023/01/12 09:17:34;;;;;;;80.15;14.63;;;12.20;99.90;;;12.39;100.00;100284.81;5092879;28;20044;-65
2023/01/12 09:20:02;;;;;;;66.40;12.30;;;12.20;99.90;;;12.44;100.00;100288.28;5092933;28;20044;-66
2023/01/12 09:22:31;;;;;;;52.92;12.63;;;12.20;99.90;;;12.47;100.00;100302.34;5092917;28;20040;-64
2023/01/12 09:25:01;;;;;;;68.63;13.80;;;12.20;99.90;;;12.46;100.00;100287.34;5093187;28;20079;-64
2023/01/12 09:27:29;;;;;;;59.05;13.52;;;12.20;99.90;;;12.47;100.00;100301.44;5092940;28;20040;-64
2023/01/12 09:29:57;;;;;;;68.05;14.20;;;12.30;99.90;;;12.47;100.00;100314.72;5074788;28;20050;-65
2023/01/12 09:32:26;;;;;;;72.38;13.60;;;12.30;99.90;;;12.45;100.00;100311.22;5092587;28;20100;-64
2023/01/12 09:35:04;;;;;;;66.97;13.50;;;12.20;99.90;;;12.51;100.00;100325.25;5092631;28;20039;-64
2023/01/12 09:37:32;;;;;;;60.60;12.15;;;12.30;99.90;;;12.52;100.00;100342.88;5092563;28;20118;-64
2023/01/12 09:40:03;;;;;;;71.25;13.02;;;12.30;99.90;;;12.43;100.00;100320.97;5092462;28;20097;-64
2023/01/12 09:48:10;;;;;;;55.40;13.15;;;12.20;99.90;;;12.41;100.00;100297.16;5092474;28;20090;-65
2023/01/12 09:50:42;;;;;;;64.82;12.45;;;12.20;99.90;;;12.34;100.00;100299.97;5092360;28;20478;-65
2023/01/12 09:53:17;;;;;;;61.58;11.55;;;12.10;99.90;;;12.35;100.00;100283.16;5093019;28;20083;-64
2023/01/12 09:55:56;;;;;;;76.32;14.25;;;12.10;99.90;;;12.41;100.00;100330.75;5092380;28;20362;-63
2023/01/12 09:58:41;;;;;;;64.30;12.55;;;12.20;99.90;;;12.42;100.00;100313.94;5092378;28;20542;-63
2023/01/12 10:01:12;;;;;;;58.17;12.32;;;12.20;99.90;;;12.42;100.00;100312.19;5092332;28;20055;-63
2023/01/12 10:03:55;;;;;;;58.65;12.18;;;12.20;99.90;;;12.47;100.00;100320.03;5092639;28;20105;-64
2023/01/12 10:06:24;;;;;;;62.13;12.13;;;12.20;99.90;;;12.47;100.00;100327.97;5092249;28;20399;-64
2023/01/12 10:08:57;;;;;;;45.70;10.23;;;12.20;99.90;;;12.46;100.00;100326.25;5093346;28;20078;-64
2023/01/12 10:11:34;;;;;;;54.75;12.18;;;12.20;99.90;;;12.35;100.00;100301.72;5096113;28;20405;-64
2023/01/12 10:14:48;;;;;;;65.40;12.57;;;12.20;99.90;;;12.44;100.00;100310.38;5096232;28;20036;-63
2023/01/12 10:17:30;;;;;;;55.92;11.48;;;12.20;99.90;;;12.44;100.00;100350.16;5059938;28;20062;-64
2023/01/12 10:20:22;;;;;;;49.00;10.70;;;12.20;99.90;;;12.44;100.00;100330.72;5096055;28;20056;-63
2023/01/12 10:22:53;;;;;;;51.22;10.52;;;12.20;99.90;;;12.50;100.00;100349.16;5077774;28;20096;-64
2023/01/12 10:25:31;;;;;;;50.08;11.00;;;12.20;99.90;;;12.49;100.00;100329.69;5096569;28;20036;-64
2023/01/12 10:28:07;;;;;;;48.85;9.95;;;12.30;99.90;;;11.92;100.00;100251.34;5077991;28;20056;-64
2023/01/12 10:30:38;;;;;;;58.47;10.30;;;12.30;99.90;;;12.51;100.00;100348.22;5096044;28;20135;-64
2023/01/12 10:33:17;;;;;;;53.10;10.13;;;12.30;99.90;;;12.56;100.00;100352.53;5096112;28;20101;-64
2023/01/12 10:35:54;;;;;;;51.70;11.38;;;12.30;99.90;;;12.62;100.00;100338.25;5096014;28;20040;-64
2023/01/12 10:38:27;;;;;;;56.42;12.07;;;12.40;99.90;;;12.56;100.00;100339.28;5077742;28;20070;-64
2023/01/12 10:41:21;;;;;;;51.13;11.45;;;12.40;99.90;;;12.52;100.00;100316.34;5095728;28;20040;-64
2023/01/12 10:44:13;;;;;;;44.90;11.02;;;12.30;99.90;;;12.47;100.00;100315.59;5081454;28;20063;-65